sensor_id;sensor_type;location;lat;lon;timestamp;P1;durP1;ratioP1;P2;durP2;ratioP2
61704;SDS011;47627;48.078;11.522;2023-09-18T09:25:33;12.90;;;3.45;;
61704;SDS011;47627;48.078;11.522;2023-09-18T09:27:59;7.22;;;2.72;;
61704;SDS011;47627;48.078;11.522;2023-09-18T09:30:26;5.88;;;3.03;;
61704;SDS011;47627;48.078;11.522;2023-09-18T09:32:52;10.75;;;3.30;;
61704;SDS011;47627;48.078;11.522;2023-09-18T09:35:25;8.18;;;3.08;;
61704;SDS011;47627;48.078;11.522;2023-09-18T09:37:52;7.82;;;3.10;;
61704;SDS011;47627;48.078;11.522;2023-09-18T09:40:21;9.57;;;3.15;;
61704;SDS011;47627;48.078;11.522;2023-09-18T09:42:47;11.52;;;3.20;;
61704;SDS011;47627;48.078;11.522;2023-09-18T09:45:14;7.80;;;3.00;;
61704;SDS011;47627;48.078;11.522;2023-09-18T09:47:41;11.07;;;3.10;;
61704;SDS011;47627;48.078;11.522;2023-09-18T09:50:07;9.57;;;3.50;;
61704;SDS011;47627;48.078;11.522;2023-09-18T09:52:34;9.52;;;3.15;;
61704;SDS011;47627;48.078;11.522;2023-09-18T09:55:00;11.52;;;3.28;;
61704;SDS011;47627;48.078;11.522;2023-09-18T09:57:25;12.07;;;3.40;;
61704;SDS011;47627;48.078;11.522;2023-09-18T09:59:51;11.10;;;3.40;;
61704;SDS011;47627;48.078;11.522;2023-09-18T10:02:16;11.13;;;2.72;;
61704;SDS011;47627;48.078;11.522;2023-09-18T10:04:44;12.15;;;3.33;;
61704;SDS011;47627;48.078;11.522;2023-09-18T10:07:13;9.43;;;3.22;;
61704;SDS011;47627;48.078;11.522;2023-09-18T10:09:39;11.00;;;3.00;;
61704;SDS011;47627;48.078;11.522;2023-09-18T10:12:09;8.20;;;3.00;;
61704;SDS011;47627;48.078;11.522;2023-09-18T10:14:35;11.68;;;2.80;;
61704;SDS011;47627;48.078;11.522;2023-09-18T10:17:15;11.30;;;3.00;;
61704;SDS011;47627;48.078;11.522;2023-09-18T10:19:54;12.45;;;3.38;;
61704;SDS011;47627;48.078;11.522;2023-09-18T10:22:32;7.85;;;2.45;;
61704;SDS011;47627;48.078;11.522;2023-09-18T10:25:07;8.20;;;2.63;;
61704;SDS011;47627;48.078;11.522;2023-09-18T10:27:35;7.85;;;2.70;;
61704;SDS011;47627;48.078;11.522;2023-09-18T10:30:03;10.43;;;3.05;;
61704;SDS011;47627;48.078;11.522;2023-09-18T10:32:30;7.40;;;2.90;;
61704;SDS011;47627;48.078;11.522;2023-09-18T10:34:55;12.55;;;3.17;;
61704;SDS011;47627;48.078;11.522;2023-09-18T10:37:21;9.65;;;3.00;;
61704;SDS011;47627;48.078;11.522;2023-09-18T10:39:47;15.60;;;3.40;;
61704;SDS011;47627;48.078;11.522;2023-09-18T10:42:14;14.13;;;2.72;;
61704;SDS011;47627;48.078;11.522;2023-09-18T10:44:41;13.15;;;2.90;;
61704;SDS011;47627;48.078;11.522;2023-09-18T10:47:08;17.67;;;3.15;;
61704;SDS011;47627;48.078;11.522;2023-09-18T10:49:34;12.20;;;3.15;;
61704;SDS011;47627;48.078;11.522;2023-09-18T10:52:00;9.90;;;3.08;;
61704;SDS011;47627;48.078;11.522;2023-09-18T10:54:26;8.10;;;2.72;;
61704;SDS011;47627;48.078;11.522;2023-09-18T10:56:52;15.00;;;3.22;;
61704;SDS011;47627;48.078;11.522;2023-09-18T10:59:18;9.70;;;2.97;;
61704;SDS011;47627;48.078;11.522;2023-09-18T11:01:44;9.57;;;3.08;;
61704;SDS011;47627;48.078;11.522;2023-09-18T11:04:12;9.48;;;3.28;;
61704;SDS011;47627;48.078;11.522;2023-09-18T11:09:24;10.88;;;2.80;;
61704;SDS011;47627;48.078;11.522;2023-09-18T11:12:08;13.55;;;3.20;;
61704;SDS011;47627;48.078;11.522;2023-09-18T11:16:59;11.37;;;3.50;;
61704;SDS011;47627;48.078;11.522;2023-09-18T11:19:24;11.68;;;4.38;;
61704;SDS011;47627;48.078;11.522;2023-09-18T11:22:05;13.55;;;4.05;;
61704;SDS011;47627;48.078;11.522;2023-09-18T11:24:31;11.63;;;4.40;;
61704;SDS011;47627;48.078;11.522;2023-09-18T11:26:56;12.52;;;5.03;;
61704;SDS011;47627;48.078;11.522;2023-09-18T11:29:22;12.95;;;4.40;;
61704;SDS011;47627;48.078;11.522;2023-09-18T11:34:25;9.75;;;3.13;;
61704;SDS011;47627;48.078;11.522;2023-09-18T11:36:53;10.82;;;3.40;;
61704;SDS011;47627;48.078;11.522;2023-09-18T14:00:51;3.67;;;1.10;;
61704;SDS011;47627;48.078;11.522;2023-09-18T14:03:16;2.38;;;1.08;;
61704;SDS011;47627;48.078;11.522;2023-09-18T14:05:43;1.73;;;1.23;;
61704;SDS011;47627;48.078;11.522;2023-09-18T14:08:08;3.08;;;1.30;;
61704;SDS011;47627;48.078;11.522;2023-09-18T14:10:34;2.50;;;1.08;;
61704;SDS011;47627;48.078;11.522;2023-09-18T14:12:59;4.00;;;1.17;;
61704;SDS011;47627;48.078;11.522;2023-09-18T14:15:24;1.67;;;0.90;;
61704;SDS011;47627;48.078;11.522;2023-09-18T14:17:50;2.33;;;1.10;;
61704;SDS011;47627;48.078;11.522;2023-09-18T14:20:15;4.65;;;1.20;;
61704;SDS011;47627;48.078;11.522;2023-09-18T14:22:43;4.13;;;1.10;;
61704;SDS011;47627;48.078;11.522;2023-09-18T14:25:08;5.90;;;1.23;;
61704;SDS011;47627;48.078;11.522;2023-09-18T14:27:34;3.67;;;1.48;;
61704;SDS011;47627;48.078;11.522;2023-09-18T14:30:00;3.92;;;1.40;;
61704;SDS011;47627;48.078;11.522;2023-09-18T14:32:27;4.03;;;1.23;;
61704;SDS011;47627;48.078;11.522;2023-09-18T14:34:53;2.13;;;1.08;;
